This is the latest recevied weather packets stored in our database for station/object IW7DVM-13. If no packets are shown the sender has not sent any weather packets the latest 10 day(s).
| Time | Temp. | Humidity | Pressure | Rain* | Wind** | Luminosity | Snow |
|---|---|---|---|---|---|---|---|
| 1788020405 | 36.67° C | 30% | 1007.9 hPa | 0 mm | - | - | - |
| 1788020103 | 35.56° C | 40% | 1007.8 hPa | 0 mm | - | - | - |
| 1788019803 | 36.11° C | 42% | 1008 hPa | 0 mm | - | - | - |
| 1788019503 | 37.22° C | 38% | 1008 hPa | 0 mm | - | - | - |
| 1788019203 | 39.44° C | 23% | 1008 hPa | 0 mm | - | - | - |
| 1788018903 | 39.44° C | 22% | 1008.1 hPa | 0 mm | - | - | - |
| 1788018604 | 39.44° C | 23% | 1008 hPa | 0 mm | - | - | - |
| 1788018303 | 40° C | 23% | 1007.9 hPa | 0 mm | - | - | - |
| 1788018003 | 40° C | 23% | 1008 hPa | 0 mm | - | - | - |
| 1788017703 | 40° C | 23% | 1008.1 hPa | 0 mm | - | - | - |
| 1788017403 | 40° C | 24% | 1008.2 hPa | 0 mm | - | - | - |
| 1788017103 | 40° C | 24% | 1008.2 hPa | 0 mm | - | - | - |
| 1788016803 | 40.56° C | 24% | 1008.2 hPa | 0 mm | - | - | - |
| 1788016503 | 40.56° C | 23% | 1008 hPa | 0 mm | - | - | - |
| 1788016203 | 40.56° C | 24% | 1008 hPa | 0 mm | - | - | - |
| 1788015903 | 41.67° C | 24% | 1008 hPa | 0 mm | - | - | - |
| 1788015603 | 41.67° C | 21% | 1008 hPa | 0 mm | - | - | - |
| 1788015303 | 41.67° C | 22% | 1008 hPa | 0 mm | - | - | - |
| 1788015003 | 41.67° C | 22% | 1008 hPa | 0 mm | - | - | - |
| 1788014703 | 41.11° C | 22% | 1008.1 hPa | 0 mm | - | - | - |
| 1788014403 | 41.67° C | 21% | 1008.2 hPa | 0 mm | - | - | - |
| 1788014103 | 41.67° C | 21% | 1008.1 hPa | 0 mm | - | - | - |
| 1788013803 | 41.67° C | 21% | 1008.1 hPa | 0 mm | - | - | - |
| 1788013503 | 41.67° C | 21% | 1008.2 hPa | 0 mm | - | - | - |
| 1788013203 | 41.67° C | 22% | 1008.3 hPa | 0 mm | - | - | - |
* Rain latest hour (hover to see other rain measurements)
** Current wind speed in m/s (hover to see current wind gust speed)